createdAt,value
2022-08-18T00:00:40.997Z,56.81
2022-08-18T00:01:52.093Z,56.87
2022-08-18T00:03:00.716Z,57.38
2022-08-18T00:04:12.475Z,56.04
2022-08-18T00:05:28.729Z,56.19
2022-08-18T00:06:32.711Z,56.96
2022-08-18T00:07:37.582Z,56.74
2022-08-18T00:08:39.456Z,57.17
2022-08-18T00:09:43.983Z,57.03
2022-08-18T00:10:46.143Z,57.12
2022-08-18T00:11:49.114Z,56.43
2022-08-18T00:12:51.240Z,56.22
2022-08-18T00:14:00.152Z,56.35
2022-08-18T00:15:05.357Z,56.97
2022-08-18T00:16:08.536Z,57.13
2022-08-18T00:17:10.866Z,56.30
2022-08-18T00:18:13.753Z,57.18
2022-08-18T00:19:15.683Z,57.04
2022-08-18T00:20:24.853Z,57.15
2022-08-18T00:21:27.332Z,56.35
2022-08-18T00:22:30.396Z,57.17
2022-08-18T00:23:33.700Z,57.00
2022-08-18T00:24:38.541Z,56.89
2022-08-18T00:25:51.671Z,56.98
2022-08-18T00:26:54.677Z,57.37
2022-08-18T00:27:58.357Z,57.42
2022-08-18T00:29:00.323Z,56.94
2022-08-18T00:30:05.609Z,57.54
2022-08-18T00:31:07.601Z,56.90
2022-08-18T00:32:14.930Z,57.46
2022-08-18T00:33:16.847Z,57.07
2022-08-18T00:34:19.733Z,57.66
2022-08-18T00:35:29.060Z,57.47
2022-08-18T00:36:34.632Z,57.41
2022-08-18T00:37:37.300Z,57.81
2022-08-18T00:38:41.798Z,57.14
2022-08-18T00:39:46.555Z,57.58
2022-08-18T00:40:53.045Z,57.69
2022-08-18T00:41:56.213Z,57.02
2022-08-18T00:43:01.913Z,57.04
2022-08-18T00:44:04.615Z,57.51
2022-08-18T00:45:08.997Z,57.86
2022-08-18T00:46:16.544Z,57.00
2022-08-18T00:47:41.588Z,57.23
2022-08-18T00:48:48.843Z,57.16
2022-08-18T00:49:53.517Z,57.03
2022-08-18T00:50:59.824Z,56.95
2022-08-18T00:52:04.399Z,57.66
2022-08-18T00:53:13.518Z,57.51
2022-08-18T00:54:20.929Z,56.97
2022-08-18T00:55:26.478Z,57.18
2022-08-18T00:56:34.060Z,57.77
2022-08-18T00:57:37.641Z,57.98
2022-08-18T00:58:43.627Z,57.82
2022-08-18T00:59:52.041Z,57.52
2022-08-18T01:00:54.861Z,58.15
2022-08-18T01:02:02.665Z,58.07
2022-08-18T01:03:10.563Z,57.88
2022-08-18T01:04:17.465Z,57.54
2022-08-18T01:05:26.449Z,58.13
2022-08-18T01:06:34.191Z,57.21
2022-08-18T01:07:40.194Z,57.60
2022-08-18T01:08:43.671Z,57.04
2022-08-18T01:09:48.349Z,57.73
2022-08-18T01:10:51.899Z,57.68
2022-08-18T01:11:54.189Z,57.44
2022-08-18T01:12:59.512Z,58.12
2022-08-18T01:14:01.485Z,57.73
2022-08-18T01:15:05.022Z,57.81
2022-08-18T01:16:22.664Z,57.16
2022-08-18T01:17:45.123Z,57.25
2022-08-18T01:19:05.925Z,57.38
2022-08-18T01:20:30.172Z,57.52
2022-08-18T01:21:54.511Z,57.43
2022-08-18T01:23:04.567Z,57.41
2022-08-18T01:24:12.731Z,56.98
2022-08-18T01:25:34.067Z,57.06
2022-08-18T01:26:44.312Z,57.06
2022-08-18T01:27:47.826Z,57.83
2022-08-18T01:28:51.080Z,57.59
2022-08-18T01:29:53.025Z,57.38
2022-08-18T01:30:58.418Z,58.82
2022-08-18T01:32:01.392Z,57.63
2022-08-18T01:33:03.326Z,57.89
2022-08-18T01:34:08.931Z,57.73
2022-08-18T01:35:14.111Z,58.14
2022-08-18T01:36:19.202Z,57.77
2022-08-18T01:37:24.291Z,58.10
2022-08-18T01:38:28.666Z,57.73
2022-08-18T01:41:22.317Z,57.60
2022-08-18T01:41:23.005Z,57.60
2022-08-18T01:42:17.579Z,57.85
2022-08-18T01:43:20.570Z,57.58
2022-08-18T01:44:22.803Z,57.47
2022-08-18T01:45:26.328Z,57.58
2022-08-18T01:46:29.890Z,57.46
2022-08-18T01:47:47.148Z,57.36
2022-08-18T01:48:52.305Z,57.81
2022-08-18T01:49:56.832Z,57.79
2022-08-18T01:50:58.888Z,57.23
2022-08-18T01:52:01.777Z,57.28
2022-08-18T01:53:05.517Z,57.54
2022-08-18T01:54:11.460Z,57.53
2022-08-18T01:55:14.867Z,58.01
2022-08-18T01:56:17.836Z,57.31
2022-08-18T01:57:22.134Z,57.53
2022-08-18T01:58:31.581Z,57.76
2022-08-18T01:59:35.279Z,57.91
2022-08-18T02:00:38.050Z,57.65
2022-08-18T02:01:48.440Z,57.64
2022-08-18T02:02:57.225Z,57.01
2022-08-18T02:04:33.346Z,57.57
2022-08-18T02:05:34.725Z,57.59
2022-08-18T02:06:37.673Z,57.67
2022-08-18T02:07:45.199Z,57.50
2022-08-18T02:08:53.437Z,57.88
2022-08-18T02:09:58.315Z,57.45
2022-08-18T02:11:01.606Z,57.40
2022-08-18T02:12:05.811Z,57.73
2022-08-18T02:13:09.043Z,57.82
2022-08-18T02:14:10.929Z,57.21
2022-08-18T02:15:14.133Z,57.51
2022-08-18T02:16:16.976Z,57.26
2022-08-18T02:17:20.399Z,57.62
2022-08-18T02:18:32.429Z,57.68
2022-08-18T02:19:49.003Z,57.40
2022-08-18T02:20:50.918Z,57.59
2022-08-18T02:21:54.184Z,57.36
2022-08-18T02:22:58.538Z,57.37
2022-08-18T02:24:01.501Z,57.44
2022-08-18T02:25:06.783Z,57.52
2022-08-18T02:26:12.824Z,57.16
2022-08-18T02:27:16.913Z,57.67
2022-08-18T02:28:20.059Z,57.64
2022-08-18T02:29:22.022Z,57.90
2022-08-18T02:30:24.954Z,57.53
2022-08-18T02:31:27.025Z,57.43
2022-08-18T02:32:30.176Z,57.77
2022-08-18T02:33:32.152Z,57.59
2022-08-18T02:34:35.674Z,57.76
2022-08-18T02:35:37.996Z,57.74
2022-08-18T02:36:41.005Z,57.89
2022-08-18T02:37:47.820Z,57.57
2022-08-18T02:38:56.610Z,57.81
2022-08-18T02:40:02.179Z,57.85
2022-08-18T02:41:09.377Z,57.68
2022-08-18T02:42:11.682Z,57.48
2022-08-18T02:43:14.575Z,57.39
2022-08-18T02:44:16.515Z,57.99
2022-08-18T02:45:19.741Z,57.89
2022-08-18T02:46:21.639Z,57.59
2022-08-18T02:47:31.485Z,57.65
2022-08-18T02:48:35.467Z,57.67
2022-08-18T02:49:38.345Z,57.70
2022-08-18T02:50:45.370Z,57.47
2022-08-18T02:51:48.370Z,57.90
2022-08-18T02:52:50.268Z,57.71
2022-08-18T02:53:53.735Z,57.66
2022-08-18T02:54:56.024Z,57.55
2022-08-18T02:56:17.700Z,57.78
2022-08-18T02:57:43.429Z,57.34
2022-08-18T02:58:45.492Z,57.72
2022-08-18T02:59:48.467Z,58.04
2022-08-18T03:00:50.397Z,57.75
2022-08-18T03:01:55.267Z,58.17
2022-08-18T03:02:57.405Z,57.81
2022-08-18T03:04:01.741Z,57.93
2022-08-18T03:05:05.122Z,57.92
2022-08-18T03:06:07.093Z,57.98
2022-08-18T03:07:10.426Z,58.14
2022-08-18T03:08:12.304Z,57.94
2022-08-18T03:09:18.465Z,57.79
2022-08-18T03:10:31.852Z,57.88
2022-08-18T03:11:38.562Z,57.94
2022-08-18T03:12:43.589Z,57.90
2022-08-18T03:13:46.403Z,58.06
2022-08-18T03:14:50.149Z,57.63
2022-08-18T03:15:56.704Z,57.80
2022-08-18T03:17:00.525Z,57.90
2022-08-18T03:18:02.634Z,57.74
2022-08-18T03:19:05.559Z,57.88
2022-08-18T03:20:07.906Z,57.66
2022-08-18T03:21:14.392Z,58.14
2022-08-18T03:22:28.073Z,57.90
2022-08-18T03:23:32.466Z,57.69
2022-08-18T03:24:36.219Z,57.76
2022-08-18T03:25:45.331Z,58.03
2022-08-18T03:26:48.599Z,57.73
2022-08-18T03:27:51.677Z,57.76
2022-08-18T03:28:55.003Z,58.10
2022-08-18T03:29:58.879Z,57.60
2022-08-18T03:31:00.887Z,58.10
2022-08-18T03:32:07.390Z,57.81
2022-08-18T03:33:09.535Z,57.90
2022-08-18T03:34:13.815Z,57.79
2022-08-18T03:35:16.621Z,57.96
2022-08-18T03:36:24.476Z,58.25
2022-08-18T03:37:26.408Z,57.95
2022-08-18T03:38:29.247Z,57.88
2022-08-18T03:39:31.427Z,57.79
2022-08-18T03:40:34.481Z,58.17
2022-08-18T03:41:56.890Z,57.98
2022-08-18T03:43:49.964Z,58.33
2022-08-18T03:44:31.356Z,58.24
2022-08-18T03:45:35.015Z,57.94
2022-08-18T03:46:36.997Z,57.99
2022-08-18T03:47:41.095Z,57.86
2022-08-18T03:48:45.814Z,58.00
2022-08-18T03:49:48.917Z,58.00
2022-08-18T03:50:50.810Z,57.82
2022-08-18T03:51:53.751Z,58.01
2022-08-18T03:52:59.401Z,58.03
2022-08-18T03:54:04.564Z,58.04
2022-08-18T03:55:07.097Z,57.87
2022-08-18T03:56:17.823Z,57.56
2022-08-18T03:57:19.971Z,57.61
2022-08-18T03:58:25.242Z,57.39
2022-08-18T03:59:28.530Z,57.78
2022-08-18T04:00:33.607Z,57.41
2022-08-18T04:01:39.295Z,57.72
2022-08-18T04:02:42.338Z,57.66
2022-08-18T04:03:45.734Z,57.75
2022-08-18T04:04:49.553Z,57.96
2022-08-18T04:05:53.256Z,57.56
2022-08-18T04:06:58.236Z,57.47
2022-08-18T04:08:00.148Z,57.73
2022-08-18T04:09:05.807Z,57.65
2022-08-18T04:10:17.015Z,57.63
2022-08-18T04:11:21.662Z,57.53
2022-08-18T04:12:24.872Z,57.65
2022-08-18T04:13:28.157Z,57.85
2022-08-18T04:14:31.907Z,57.73
2022-08-18T04:15:33.834Z,58.01
2022-08-18T04:16:38.270Z,57.77
2022-08-18T04:18:06.283Z,58.12
2022-08-18T04:19:04.182Z,57.73
2022-08-18T04:20:06.808Z,57.79
2022-08-18T04:21:13.734Z,57.74
2022-08-18T04:22:17.128Z,57.37
2022-08-18T04:23:21.239Z,58.21
2022-08-18T04:24:23.577Z,57.52
2022-08-18T04:25:32.129Z,57.69
2022-08-18T04:26:37.899Z,57.57
2022-08-18T04:27:42.853Z,57.56
2022-08-18T04:28:46.380Z,57.74
2022-08-18T04:29:49.774Z,57.58
2022-08-18T04:30:51.981Z,58.05
2022-08-18T04:31:55.304Z,58.06
2022-08-18T04:32:57.233Z,57.96
2022-08-18T04:34:02.178Z,58.38
2022-08-18T04:35:05.014Z,57.90
2022-08-18T04:36:11.016Z,58.00
2022-08-18T04:37:15.324Z,57.86
2022-08-18T04:38:17.485Z,58.28
2022-08-18T04:39:20.667Z,57.84
2022-08-18T04:40:25.155Z,57.88
2022-08-18T04:41:29.449Z,57.92
2022-08-18T04:42:31.535Z,57.79
2022-08-18T04:43:34.668Z,57.84
2022-08-18T04:44:37.974Z,57.98
2022-08-18T04:45:41.256Z,57.65
2022-08-18T04:46:48.619Z,57.71
2022-08-18T04:47:51.388Z,57.36
2022-08-18T04:48:59.268Z,57.47
2022-08-18T04:50:01.369Z,57.45
2022-08-18T04:51:08.006Z,57.55
2022-08-18T04:52:40.849Z,57.63
2022-08-18T04:53:47.006Z,58.09
2022-08-18T04:54:49.129Z,57.43
2022-08-18T04:55:53.816Z,57.35
2022-08-18T04:56:55.872Z,57.69
2022-08-18T04:57:59.355Z,57.62
2022-08-18T04:59:04.729Z,57.75
2022-08-18T05:00:12.473Z,57.38
2022-08-18T05:01:14.354Z,57.34
2022-08-18T05:02:22.156Z,57.93
2022-08-18T05:03:26.731Z,57.78
2022-08-18T05:04:30.415Z,57.31
2022-08-18T05:05:32.463Z,57.61
2022-08-18T05:06:36.878Z,57.10
2022-08-18T05:07:44.989Z,57.29
2022-08-18T05:08:48.830Z,57.40
2022-08-18T05:09:51.962Z,56.95
2022-08-18T05:10:59.087Z,57.02
2022-08-18T05:12:05.059Z,56.68
2022-08-18T05:13:07.923Z,56.95
2022-08-18T05:14:11.039Z,56.52
2022-08-18T05:15:15.445Z,56.87
2022-08-18T05:16:27.397Z,56.82
2022-08-18T05:17:31.357Z,56.60
2022-08-18T05:18:38.484Z,57.03
2022-08-18T05:19:44.234Z,56.95
2022-08-18T05:20:46.422Z,57.06
2022-08-18T05:21:50.793Z,56.98
2022-08-18T05:22:53.410Z,56.60
2022-08-18T05:23:56.503Z,56.67
2022-08-18T05:24:58.855Z,56.80
2022-08-18T05:26:03.632Z,56.72
2022-08-18T05:27:07.401Z,56.59
2022-08-18T05:28:10.482Z,57.25
2022-08-18T05:29:18.948Z,56.09
2022-08-18T05:30:24.209Z,56.63
2022-08-18T05:31:29.177Z,56.07
2022-08-18T05:32:47.970Z,56.30
2022-08-18T05:33:55.586Z,56.59
2022-08-18T05:34:58.217Z,56.11
2022-08-18T05:36:04.911Z,56.20
2022-08-18T05:37:27.760Z,56.72
2022-08-18T05:38:42.479Z,56.61
2022-08-18T05:39:57.498Z,56.80
2022-08-18T05:41:07.800Z,56.80
2022-08-18T05:42:19.682Z,56.66
2022-08-18T05:43:21.552Z,56.95
2022-08-18T05:44:28.297Z,57.02
2022-08-18T05:45:31.576Z,56.45
2022-08-18T05:46:42.524Z,57.92
2022-08-18T05:47:44.863Z,57.65
2022-08-18T05:48:47.922Z,57.43
2022-08-18T05:49:50.363Z,58.17
2022-08-18T05:50:53.422Z,58.79
2022-08-18T05:52:01.081Z,58.31
2022-08-18T05:53:10.751Z,58.01
2022-08-18T05:54:34.919Z,57.75
2022-08-18T05:55:59.210Z,58.34
2022-08-18T05:57:05.786Z,57.99
2022-08-18T05:58:13.798Z,58.79
2022-08-18T05:59:22.164Z,58.43
2022-08-18T06:00:25.769Z,58.89
2022-08-18T06:01:36.248Z,58.92
2022-08-18T06:02:47.932Z,59.33
2022-08-18T06:03:54.001Z,59.45
2022-08-18T06:05:01.162Z,59.00
2022-08-18T06:06:09.017Z,59.60
2022-08-18T06:07:19.199Z,60.30
2022-08-18T06:08:26.595Z,59.47
2022-08-18T06:09:34.984Z,60.01
2022-08-18T06:10:39.069Z,59.37
2022-08-18T06:11:41.213Z,59.93
2022-08-18T06:12:47.396Z,60.12
2022-08-18T06:13:50.100Z,59.47
2022-08-18T06:15:05.990Z,59.34
2022-08-18T06:16:16.977Z,59.61
2022-08-18T06:17:38.222Z,59.61
2022-08-18T06:18:47.849Z,60.01
2022-08-18T06:19:58.571Z,59.98
2022-08-18T06:21:17.115Z,60.31
2022-08-18T06:22:31.433Z,60.02
2022-08-18T06:23:43.322Z,60.57
2022-08-18T06:24:53.183Z,60.38
2022-08-18T06:26:11.681Z,60.87
2022-08-18T06:27:22.052Z,61.03
2022-08-18T06:28:25.143Z,60.62
2022-08-18T06:29:44.379Z,60.68
2022-08-18T06:30:55.271Z,60.06
2022-08-18T06:32:15.813Z,60.41
2022-08-18T06:33:37.175Z,60.51
2022-08-18T06:34:54.501Z,60.45
2022-08-18T06:36:02.962Z,60.43
2022-08-18T06:37:20.289Z,60.11
2022-08-18T06:38:38.427Z,60.82
2022-08-18T06:39:47.229Z,61.41
2022-08-18T06:40:50.068Z,60.35
2022-08-18T06:41:54.093Z,60.28
2022-08-18T06:42:55.981Z,60.42
2022-08-18T06:44:06.712Z,60.57
2022-08-18T06:45:12.881Z,60.85
2022-08-18T06:46:21.415Z,60.64
2022-08-18T06:47:35.715Z,61.81
2022-08-18T06:48:50.865Z,60.26
2022-08-18T06:50:04.300Z,60.60
2022-08-18T06:51:08.734Z,60.18
2022-08-18T06:52:23.038Z,61.50
2022-08-18T06:53:54.082Z,60.94
2022-08-18T06:54:59.863Z,61.73
2022-08-18T06:56:25.852Z,61.11
2022-08-18T06:57:34.677Z,61.38
2022-08-18T06:58:36.669Z,61.70
2022-08-18T06:59:39.681Z,61.24
2022-08-18T07:00:55.958Z,60.91
2022-08-18T07:02:03.390Z,61.21
2022-08-18T07:03:08.302Z,60.42
2022-08-18T07:04:32.948Z,60.99
2022-08-18T07:05:37.583Z,61.81
2022-08-18T07:06:39.496Z,61.31
2022-08-18T07:07:43.356Z,61.16
2022-08-18T07:08:45.735Z,60.02
2022-08-18T07:09:49.749Z,59.58
2022-08-18T07:10:53.258Z,59.66
2022-08-18T07:12:02.984Z,60.45
2022-08-18T07:13:20.709Z,60.11
2022-08-18T07:14:25.640Z,59.90
2022-08-18T07:15:28.740Z,59.61
2022-08-18T07:16:57.161Z,60.31
2022-08-18T07:18:04.981Z,61.16
2022-08-18T07:19:08.918Z,61.05
2022-08-18T07:20:21.728Z,62.33
2022-08-18T07:21:26.344Z,59.73
2022-08-18T07:22:38.880Z,59.47
2022-08-18T07:23:42.465Z,60.85
2022-08-18T07:24:46.879Z,61.05
2022-08-18T07:25:54.085Z,62.16
2022-08-18T07:27:01.562Z,60.90
2022-08-18T07:28:05.070Z,61.55
2022-08-18T07:29:14.433Z,59.54
2022-08-18T07:30:32.390Z,59.66
2022-08-18T07:31:43.896Z,60.20
2022-08-18T07:32:51.270Z,60.29
2022-08-18T07:33:58.878Z,58.56
2022-08-18T07:35:03.646Z,58.49
2022-08-18T07:36:11.729Z,58.22
2022-08-18T07:37:18.576Z,58.60
2022-08-18T07:38:44.305Z,59.22
2022-08-18T07:39:52.679Z,60.33
2022-08-18T07:41:00.399Z,61.37
2022-08-18T07:42:09.570Z,62.60
2022-08-18T07:43:19.694Z,59.62
2022-08-18T07:44:26.481Z,58.16
2022-08-18T07:45:34.947Z,58.62
2022-08-18T07:46:55.857Z,58.85
2022-08-18T07:48:15.693Z,59.42
2022-08-18T07:49:27.469Z,58.46
2022-08-18T07:50:58.902Z,61.67
2022-08-18T07:52:14.630Z,59.51
2022-08-18T07:53:39.315Z,58.24
2022-08-18T07:54:54.298Z,59.76
2022-08-18T07:56:02.739Z,59.38
2022-08-18T07:57:19.639Z,57.92
2022-08-18T07:58:29.302Z,60.68
2022-08-18T07:59:37.318Z,59.99
2022-08-18T08:00:59.650Z,59.59
2022-08-18T08:02:19.902Z,59.04
2022-08-18T08:03:31.314Z,59.68
2022-08-18T08:04:41.684Z,60.64
2022-08-18T08:05:54.827Z,61.10
2022-08-18T08:07:24.014Z,61.42
2022-08-18T08:08:35.601Z,60.62
2022-08-18T08:09:57.902Z,59.60
2022-08-18T08:11:14.784Z,62.15
2022-08-18T08:12:27.863Z,58.53
2022-08-18T08:13:54.743Z,59.52
2022-08-18T08:15:10.842Z,59.35
2022-08-18T08:16:20.005Z,60.64
2022-08-18T08:17:32.750Z,59.92
2022-08-18T08:18:44.332Z,59.05
2022-08-18T08:20:03.991Z,59.39
2022-08-18T08:21:12.423Z,59.79
2022-08-18T08:22:23.852Z,59.31
2022-08-18T08:23:31.974Z,61.11
2022-08-18T08:24:49.601Z,62.25
2022-08-18T08:26:03.504Z,59.61
2022-08-18T08:27:12.759Z,59.65
2022-08-18T08:28:26.245Z,61.48
2022-08-18T08:29:39.236Z,59.63
2022-08-18T08:30:49.874Z,60.75
2022-08-18T08:32:03.369Z,61.91
2022-08-18T08:33:12.796Z,61.00
2022-08-18T08:34:20.634Z,61.47
2022-08-18T08:35:48.571Z,59.37
2022-08-18T08:37:02.109Z,60.78
2022-08-18T08:38:36.667Z,61.19
2022-08-18T08:39:40.551Z,61.12
2022-08-18T08:40:53.067Z,61.52
2022-08-18T08:42:31.929Z,60.16
2022-08-18T08:43:29.968Z,60.23
2022-08-18T08:44:44.979Z,60.38
2022-08-18T08:46:08.302Z,61.22
2022-08-18T08:47:23.260Z,58.62
2022-08-18T08:48:29.535Z,60.08
2022-08-18T08:49:40.692Z,60.44
2022-08-18T08:50:47.714Z,60.50
2022-08-18T08:51:56.686Z,60.27
2022-08-18T08:53:05.669Z,61.36
2022-08-18T08:54:18.053Z,61.41
2022-08-18T08:55:25.663Z,61.36
2022-08-18T08:56:32.877Z,59.81
2022-08-18T08:57:40.863Z,61.00
2022-08-18T08:58:46.715Z,61.33
2022-08-18T08:59:52.746Z,61.12
2022-08-18T09:00:56.853Z,61.03
2022-08-18T09:02:44.600Z,60.57
2022-08-18T09:03:50.091Z,61.05
2022-08-18T09:05:08.633Z,60.89
2022-08-18T09:06:26.530Z,60.01
2022-08-18T09:07:43.093Z,59.65
2022-08-18T09:09:02.898Z,60.30
2022-08-18T09:10:34.808Z,60.60
2022-08-18T09:11:59.887Z,60.65
2022-08-18T09:13:26.876Z,60.24
2022-08-18T09:14:59.094Z,58.42
2022-08-18T09:16:16.496Z,59.47
2022-08-18T09:17:39.972Z,57.66
2022-08-18T09:18:57.866Z,57.35
2022-08-18T09:20:45.792Z,60.22
2022-08-18T09:22:00.489Z,59.16
2022-08-18T09:23:07.530Z,59.38
2022-08-18T09:24:21.587Z,60.73
2022-08-18T09:25:48.877Z,59.15
2022-08-18T09:27:13.454Z,58.58
2022-08-18T09:28:18.987Z,59.26
2022-08-18T09:29:27.064Z,58.51
2022-08-18T09:30:42.683Z,57.98
2022-08-18T09:31:47.434Z,57.48
2022-08-18T09:32:57.244Z,57.87
2022-08-18T09:34:21.363Z,58.46
2022-08-18T09:35:44.868Z,57.66
2022-08-18T09:37:10.055Z,58.53
2022-08-18T09:38:37.875Z,59.73
2022-08-18T09:40:11.262Z,59.20
2022-08-18T09:41:34.429Z,58.44
2022-08-18T09:42:48.603Z,58.58
2022-08-18T09:44:17.950Z,56.91
2022-08-18T09:45:57.562Z,59.46
2022-08-18T09:47:00.385Z,59.45
2022-08-18T09:49:51.342Z,58.65
2022-08-18T09:50:37.216Z,59.47
2022-08-18T09:51:23.483Z,59.36
2022-08-18T09:53:04.411Z,58.79
2022-08-18T09:54:20.911Z,59.72
2022-08-18T09:55:42.699Z,58.62
2022-08-18T09:57:22.435Z,59.67
2022-08-18T09:59:02.085Z,60.11
2022-08-18T10:00:28.512Z,59.33
2022-08-18T10:01:38.202Z,60.46
2022-08-18T10:03:14.224Z,60.06
2022-08-18T10:04:32.620Z,59.74
2022-08-18T10:05:35.330Z,59.47
2022-08-18T10:06:38.682Z,59.01
2022-08-18T10:07:47.546Z,58.84
2022-08-18T10:09:18.067Z,59.03
2022-08-18T10:11:00.877Z,59.39
2022-08-18T10:12:32.938Z,60.35
2022-08-18T10:13:49.215Z,59.80
2022-08-18T10:15:08.921Z,59.63
2022-08-18T10:16:19.871Z,60.04
2022-08-18T10:17:39.977Z,60.11
2022-08-18T10:18:57.544Z,60.59
2022-08-18T10:20:26.503Z,60.29
2022-08-18T10:21:53.882Z,59.42
2022-08-18T10:22:57.997Z,59.02
2022-08-18T10:24:36.409Z,59.32
2022-08-18T10:25:42.452Z,59.70
2022-08-18T10:27:32.668Z,58.62
2022-08-18T10:28:57.471Z,58.96
2022-08-18T10:30:00.587Z,59.46
2022-08-18T10:31:10.179Z,59.11
2022-08-18T10:32:37.513Z,57.52
2022-08-18T10:34:16.589Z,57.46
2022-08-18T10:35:59.186Z,57.70
2022-08-18T10:37:06.472Z,58.94
2022-08-18T10:38:17.313Z,57.71
2022-08-18T10:39:23.369Z,57.56
2022-08-18T10:40:26.472Z,58.04
2022-08-18T10:41:33.036Z,57.38
2022-08-18T10:42:41.055Z,57.08
2022-08-18T10:43:55.988Z,55.69
2022-08-18T10:45:09.514Z,56.49
2022-08-18T10:46:25.414Z,56.30
2022-08-18T10:47:33.417Z,57.19
2022-08-18T10:48:40.099Z,56.59
2022-08-18T10:49:50.285Z,57.51
2022-08-18T10:51:01.890Z,58.16
2022-08-18T10:52:23.500Z,57.95
2022-08-18T10:53:38.971Z,58.19
2022-08-18T10:55:06.919Z,57.35
2022-08-18T10:56:27.475Z,57.79
2022-08-18T10:57:36.855Z,58.41
2022-08-18T10:59:00.455Z,58.56
2022-08-18T11:00:09.765Z,58.28
2022-08-18T11:01:44.577Z,58.28
2022-08-18T11:04:38.549Z,56.51
2022-08-18T11:05:42.114Z,56.44
2022-08-18T11:06:51.413Z,55.98
2022-08-18T11:08:00.473Z,56.21
2022-08-18T11:09:05.395Z,56.87
2022-08-18T11:10:34.680Z,57.08
2022-08-18T11:11:53.099Z,56.82
2022-08-18T11:13:09.968Z,57.30
2022-08-18T11:14:42.336Z,56.88
2022-08-18T11:15:59.422Z,56.45
2022-08-18T11:17:09.762Z,57.10
2022-08-18T11:18:42.694Z,56.64
2022-08-18T11:19:50.675Z,56.82
2022-08-18T11:20:53.856Z,56.42
2022-08-18T11:21:56.995Z,56.01
2022-08-18T11:23:01.276Z,56.18
2022-08-18T11:24:11.808Z,55.81
2022-08-18T11:25:22.546Z,55.47
2022-08-18T11:26:25.527Z,54.82
2022-08-18T11:27:30.853Z,55.18
2022-08-18T11:28:34.714Z,54.77
2022-08-18T11:29:43.515Z,55.14
2022-08-18T11:30:48.867Z,54.74
2022-08-18T11:31:59.283Z,55.22
2022-08-18T11:33:05.712Z,55.48
2022-08-18T11:34:18.357Z,55.42
2022-08-18T11:35:27.895Z,55.50
2022-08-18T11:36:30.686Z,56.05
2022-08-18T11:39:01.260Z,55.79
2022-08-18T11:40:14.061Z,56.25
2022-08-18T11:41:26.549Z,56.86
2022-08-18T11:42:55.708Z,57.63
2022-08-18T11:44:02.484Z,57.92
2022-08-18T11:45:12.020Z,57.52
2022-08-18T11:46:28.299Z,57.59
2022-08-18T11:47:34.072Z,57.10
2022-08-18T11:50:10.173Z,57.43
2022-08-18T11:51:23.724Z,57.36
2022-08-18T11:52:33.149Z,57.68
2022-08-18T11:53:43.205Z,57.88
2022-08-18T11:54:54.244Z,57.76
2022-08-18T11:56:21.575Z,57.08
2022-08-18T11:57:46.496Z,57.08
2022-08-18T11:58:53.888Z,56.97
2022-08-18T12:00:00.554Z,56.48
2022-08-18T12:01:04.132Z,56.92
2022-08-18T12:02:08.307Z,57.17
2022-08-18T12:03:19.106Z,57.37
2022-08-18T12:04:29.040Z,56.62
2022-08-18T12:05:54.050Z,56.35
2022-08-18T12:07:04.834Z,56.63
2022-08-18T12:08:41.637Z,56.79
2022-08-18T12:11:27.274Z,57.50
2022-08-18T12:12:32.915Z,56.67
2022-08-18T12:13:36.978Z,57.00
2022-08-18T12:15:00.563Z,56.96
2022-08-18T12:16:13.307Z,56.30
2022-08-18T12:17:16.342Z,54.89
2022-08-18T12:19:42.613Z,55.16
2022-08-18T12:20:44.593Z,55.00
2022-08-18T12:21:52.204Z,54.96
2022-08-18T12:22:58.254Z,55.85
2022-08-18T12:24:00.273Z,55.51
2022-08-18T12:25:04.014Z,55.66
2022-08-18T12:26:27.344Z,56.24
2022-08-18T12:27:40.867Z,56.17
2022-08-18T12:28:43.635Z,56.02
2022-08-18T12:29:46.678Z,55.96
2022-08-18T12:30:56.103Z,56.16
2022-08-18T12:32:00.261Z,56.42
2022-08-18T12:34:27.437Z,54.11
2022-08-18T12:35:29.383Z,54.41
2022-08-18T12:36:32.787Z,54.36
2022-08-18T12:39:00.936Z,54.54
2022-08-18T12:40:06.097Z,54.67
2022-08-18T12:41:11.929Z,54.49
2022-08-18T12:42:15.641Z,55.74
2022-08-18T12:43:19.133Z,55.79
2022-08-18T12:44:22.248Z,54.47
2022-08-18T12:45:25.821Z,54.71
2022-08-18T12:46:31.604Z,55.12
2022-08-18T12:47:38.449Z,54.90
2022-08-18T12:48:45.394Z,55.23
2022-08-18T12:51:13.481Z,55.97
2022-08-18T12:52:17.278Z,55.59
2022-08-18T12:53:29.662Z,55.98
2022-08-18T12:54:55.484Z,55.83
2022-08-18T12:55:59.263Z,55.89
2022-08-18T12:57:03.839Z,55.67
2022-08-18T12:58:12.027Z,55.78
2022-08-18T12:59:14.904Z,55.69
2022-08-18T13:00:17.599Z,55.45
2022-08-18T13:01:23.361Z,54.54
2022-08-18T13:02:25.889Z,55.10
2022-08-18T13:03:28.794Z,55.61
2022-08-18T13:04:37.178Z,55.65
2022-08-18T13:05:40.325Z,55.12
2022-08-18T13:07:00.140Z,55.06
2022-08-18T13:08:05.937Z,55.56
2022-08-18T13:09:16.234Z,55.27
2022-08-18T13:10:45.912Z,55.58
2022-08-18T13:11:50.745Z,55.44
2022-08-18T13:12:53.858Z,55.76
2022-08-18T13:13:57.372Z,55.57
2022-08-18T13:15:00.389Z,55.47
2022-08-18T13:16:03.829Z,55.70
2022-08-18T13:17:10.284Z,55.16
2022-08-18T13:18:15.287Z,55.56
2022-08-18T13:19:18.396Z,55.54
2022-08-18T13:20:22.047Z,55.60
2022-08-18T13:21:24.103Z,55.39
2022-08-18T13:22:31.927Z,55.34
2022-08-18T13:23:36.080Z,56.12
2022-08-18T13:24:39.173Z,56.03
2022-08-18T13:25:46.966Z,56.84
2022-08-18T13:26:49.689Z,56.65
2022-08-18T13:29:05.510Z,56.19
2022-08-18T13:30:29.365Z,56.74
2022-08-18T13:31:34.786Z,56.84
2022-08-18T13:32:59.315Z,57.16
2022-08-18T13:34:04.856Z,56.88
2022-08-18T13:35:09.013Z,57.19
2022-08-18T13:36:16.064Z,56.78
2022-08-18T13:37:18.723Z,57.16
2022-08-18T13:38:28.136Z,56.82
2022-08-18T13:39:33.871Z,56.61
2022-08-18T13:40:38.366Z,56.85
2022-08-18T13:41:51.873Z,56.79
2022-08-18T13:42:54.619Z,56.47
2022-08-18T13:44:00.148Z,56.29
2022-08-18T13:45:24.816Z,56.45
2022-08-18T13:46:31.174Z,56.60
2022-08-18T13:47:38.245Z,56.38
2022-08-18T13:48:42.043Z,56.41
2022-08-18T13:49:58.121Z,56.70
2022-08-18T13:51:04.039Z,56.73
2022-08-18T13:52:12.167Z,56.62
2022-08-18T13:53:31.405Z,56.72
2022-08-18T13:54:35.921Z,56.66
2022-08-18T13:55:38.777Z,56.40
2022-08-18T13:56:40.757Z,56.45
2022-08-18T13:57:49.729Z,56.41
2022-08-18T13:58:55.554Z,56.10
2022-08-18T13:59:58.587Z,56.24
2022-08-18T14:01:39.540Z,56.23
2022-08-18T14:02:28.219Z,56.53
2022-08-18T14:03:46.941Z,56.57
2022-08-18T14:04:55.745Z,56.11
2022-08-18T14:06:01.457Z,55.82
2022-08-18T14:07:10.431Z,56.01
2022-08-18T14:08:19.578Z,55.50
2022-08-18T14:09:36.299Z,55.87
2022-08-18T14:10:40.744Z,55.93
2022-08-18T14:11:42.799Z,56.07
2022-08-18T14:12:56.702Z,55.82
2022-08-18T14:13:59.194Z,55.93
2022-08-18T14:15:07.772Z,56.23
2022-08-18T14:16:18.467Z,56.47
2022-08-18T14:17:24.247Z,56.18
2022-08-18T14:18:30.694Z,56.09
2022-08-18T14:19:51.492Z,56.22
2022-08-18T14:21:12.182Z,56.01
2022-08-18T14:22:33.525Z,56.04
2022-08-18T14:24:01.382Z,55.50
2022-08-18T14:25:22.860Z,55.73
2022-08-18T14:26:43.151Z,55.55
2022-08-18T14:27:57.013Z,55.35
2022-08-18T14:28:59.240Z,55.63
2022-08-18T14:30:02.649Z,55.69
2022-08-18T14:31:07.116Z,55.87
2022-08-18T14:32:17.772Z,55.76
2022-08-18T14:33:27.222Z,55.94
2022-08-18T14:34:37.747Z,56.01
2022-08-18T14:36:09.243Z,55.96
2022-08-18T14:37:12.845Z,55.67
2022-08-18T14:38:17.421Z,55.71
2022-08-18T14:39:19.327Z,55.62
2022-08-18T14:40:22.287Z,55.66
2022-08-18T14:41:25.460Z,55.91
2022-08-18T14:42:32.880Z,56.00
2022-08-18T14:44:04.078Z,55.49
2022-08-18T14:45:26.532Z,55.86
2022-08-18T14:46:36.626Z,55.98
2022-08-18T14:47:45.233Z,56.42
2022-08-18T14:48:52.173Z,55.35
2022-08-18T14:49:57.021Z,55.44
2022-08-18T14:51:00.879Z,55.77
2022-08-18T14:52:10.623Z,55.77
2022-08-18T14:53:17.447Z,55.83
2022-08-18T14:54:22.047Z,54.53
2022-08-18T14:55:24.121Z,54.92
2022-08-18T14:56:28.880Z,54.69
2022-08-18T14:57:31.418Z,54.79
2022-08-18T14:58:35.950Z,55.04
2022-08-18T14:59:41.075Z,55.38
2022-08-18T15:00:53.925Z,55.14
2022-08-18T15:02:00.314Z,54.88
2022-08-18T15:03:06.302Z,54.97
2022-08-18T15:04:15.237Z,55.83
2022-08-18T15:05:24.783Z,55.90
2022-08-18T15:06:27.245Z,55.40
2022-08-18T15:07:32.806Z,55.82
2022-08-18T15:08:36.378Z,55.38
2022-08-18T15:09:39.838Z,55.33